Hope, Canada
Current Conditions -  °F | °C
As of 8:27 PM on Monday 20 Oct 2014 (Local Time) from CYHE Reporting Station
Light Rain Light Rain  
Wind Chill: 13°   Ceiling: 3400
Heat Index: 13°   Visibility: 7mi
Dew Point: 13°   Wind: 2mph
Humidity: 100%   Direction: 280°W
Pressure: 29.71"   Gusts: NA
Location:  49.36°N, 121.5°W
Report Text: CYHE 210327Z AUTO 28002KT 7SM -RA SCT009 BKN034 BKN050 13/13 A2971 RMK SLP061
Loading
Personal Weather Stations






























Interactive Weather Map
Tropical Storm Tracking
New forecast layout! Learn more

10-Day Weather Forecast

Advertisements
Track Severe Weather on mobile